Time;durP1;ratioP1;P1;durP2;ratioP2;P2;SDS_P1;SDS_P2;PMS_P1;PMS_P2;Temp;Humidity;BMP_temperature;BMP_pressure;BME280_temperature;BME280_humidity;BME280_pressure;Samples;Min_cycle;Max_cycle;Signal;HPM_P1;HPM_P2
2022/04/08 00:01:41;;;;;;;;;;;;;;;7.99;86.10;98223.06;5051691;28;874;-57
2022/04/08 00:04:08;;;;;;;;;;;;;;;7.94;86.02;98223.56;5051664;28;870;-57
2022/04/08 00:06:35;;;;;;;;;;;;;;;7.88;86.49;98223.28;5051673;28;841;-57
2022/04/08 00:09:02;;;;;;;;;;;;;;;7.86;87.20;98224.91;5051588;28;878;-57
2022/04/08 00:11:28;;;;;;;;;;;;;;;7.85;87.48;98217.84;5051470;28;857;-57
2022/04/08 00:13:55;;;;;;;;;;;;;;;7.86;87.66;98213.91;5051900;28;799;-57
2022/04/08 00:16:22;;;;;;;;;;;;;;;7.84;87.77;98217.06;5051463;28;902;-57
2022/04/08 00:18:49;;;;;;;;;;;;;;;7.81;87.77;98217.94;5051442;28;1882;-57
2022/04/08 00:21:16;;;;;;;;;;;;;;;7.80;88.63;98219.09;5050849;28;933;-56
2022/04/08 00:23:43;;;;;;;;;;;;;;;7.80;88.04;98219.09;5051266;28;1033;-56
2022/04/08 00:26:10;;;;;;;;;;;;;;;7.78;88.62;98224.25;5051262;28;1426;-57
2022/04/08 00:28:37;;;;;;;;;;;;;;;7.75;88.81;98220.38;5051421;28;912;-57
2022/04/08 00:31:04;;;;;;;;;;;;;;;7.75;89.24;98211.34;5051405;28;877;-57
2022/04/08 00:33:32;;;;;;;;;;;;;;;7.78;89.37;98210.50;5051416;28;1229;-57
2022/04/08 00:35:57;;;;;;;;;;;;;;;7.75;88.72;98203.88;5051347;28;826;-56
2022/04/08 00:38:24;;;;;;;;;;;;;;;7.71;89.41;98205.16;5051263;28;1914;-57
2022/04/08 00:40:51;;;;;;;;;;;;;;;7.70;89.25;98206.31;5051202;28;850;-57
2022/04/08 00:43:19;;;;;;;;;;;;;;;7.73;88.78;98203.53;5051425;28;806;-56
2022/04/08 00:45:46;;;;;;;;;;;;;;;7.76;89.61;98202.66;5051195;28;814;-55
2022/04/08 00:48:13;;;;;;;;;;;;;;;7.75;89.74;98212.13;5051266;28;838;-57
2022/04/08 00:50:43;;;;;;;;;;;;;;;7.79;89.44;98220.31;5051194;28;846;-56
2022/04/08 00:53:10;;;;;;;;;;;;;;;7.82;89.68;98221.44;5051103;28;902;-57
2022/04/08 00:55:37;;;;;;;;;;;;;;;7.87;89.31;98218.19;5051129;28;861;-57
2022/04/08 00:58:05;;;;;;;;;;;;;;;7.89;89.35;98216.56;5050943;28;1890;-57
2022/04/08 01:00:35;;;;;;;;;;;;;;;7.94;88.58;98218.84;5051029;28;921;-57
2022/04/08 01:03:02;;;;;;;;;;;;;;;7.93;88.37;98211.78;5051001;28;857;-56
2022/04/08 01:05:29;;;;;;;;;;;;;;;7.86;88.44;98208.41;5051116;28;802;-57
2022/04/08 01:07:56;;;;;;;;;;;;;;;7.78;89.33;98216.00;5050988;28;838;-57
2022/04/08 01:10:22;;;;;;;;;;;;;;;7.74;88.81;98205.06;5050941;28;865;-57
2022/04/08 01:12:50;;;;;;;;;;;;;;;7.69;89.39;98215.78;5050927;28;906;-57
2022/04/08 01:15:17;;;;;;;;;;;;;;;7.71;89.27;98214.16;5050916;28;889;-57
2022/04/08 01:17:44;;;;;;;;;;;;;;;7.81;89.30;98217.13;5050781;28;1890;-56
2022/04/08 01:20:11;;;;;;;;;;;;;;;7.91;89.05;98218.91;5050961;28;803;-56
2022/04/08 01:22:37;;;;;;;;;;;;;;;8.07;88.32;98227.25;5050930;28;857;-57
2022/04/08 01:25:05;;;;;;;;;;;;;;;8.16;87.94;98227.44;5050862;28;1234;-56
2022/04/08 01:27:31;;;;;;;;;;;;;;;8.23;87.54;98234.75;5050876;28;881;-57
2022/04/08 01:29:58;;;;;;;;;;;;;;;8.25;87.14;98228.84;5049535;28;746;-57
2022/04/08 01:32:25;;;;;;;;;;;;;;;8.20;87.26;98237.59;5050706;28;961;-57
2022/04/08 01:34:52;;;;;;;;;;;;;;;8.22;87.60;98233.22;5054104;28;861;-57
2022/04/08 01:37:21;;;;;;;;;;;;;;;8.29;87.80;98232.31;5054485;28;1977;-57
2022/04/08 01:39:48;;;;;;;;;;;;;;;8.34;87.26;98224.31;5054244;28;873;-57
2022/04/08 01:42:21;;;;;;;;;;;;;;;8.33;87.08;98222.75;5054261;28;818;-56
2022/04/08 01:44:49;;;;;;;;;;;;;;;8.31;86.79;98244.44;5054064;28;905;-57
2022/04/08 01:47:15;;;;;;;;;;;;;;;8.28;87.19;98245.28;5054180;28;869;-57
2022/04/08 01:49:42;;;;;;;;;;;;;;;8.25;87.91;98245.34;5054116;28;849;-57
2022/04/08 01:52:08;;;;;;;;;;;;;;;8.24;87.71;98241.84;5054005;28;942;-57
2022/04/08 01:54:34;;;;;;;;;;;;;;;8.24;87.82;98241.06;5052659;28;1291;-56
2022/04/08 01:57:01;;;;;;;;;;;;;;;8.24;88.29;98249.31;5053988;28;901;-57
2022/04/08 01:59:28;;;;;;;;;;;;;;;8.28;87.80;98248.03;5053812;28;1944;-57
2022/04/08 02:01:55;;;;;;;;;;;;;;;8.25;88.09;98243.38;5053877;28;837;-57
2022/04/08 02:04:21;;;;;;;;;;;;;;;8.25;88.17;98248.88;5053849;28;850;-57
2022/04/08 02:06:48;;;;;;;;;;;;;;;8.27;88.71;98254.72;5053717;28;905;-57
2022/04/08 02:09:15;;;;;;;;;;;;;;;8.30;88.53;98250.34;5053892;28;830;-57
2022/04/08 02:11:43;;;;;;;;;;;;;;;8.35;87.83;98253.41;5053703;28;818;-57
2022/04/08 02:14:09;;;;;;;;;;;;;;;8.41;87.31;98250.97;5053555;28;926;-57
2022/04/08 02:16:35;;;;;;;;;;;;;;;8.43;87.34;98242.25;5053569;28;849;-57
2022/04/08 02:19:02;;;;;;;;;;;;;;;8.43;87.11;98247.75;5053523;28;1882;-57
2022/04/08 02:21:28;;;;;;;;;;;;;;;8.41;87.76;98250.97;5053329;28;894;-57
2022/04/08 02:23:55;;;;;;;;;;;;;;;8.39;87.70;98248.59;5053500;28;966;-57
2022/04/08 02:26:22;;;;;;;;;;;;;;;8.39;87.87;98237.59;5053226;28;1242;-57
2022/04/08 02:28:49;;;;;;;;;;;;;;;8.35;87.50;98244.38;5053373;28;902;-57
2022/04/08 02:31:15;;;;;;;;;;;;;;;8.27;87.70;98238.22;5053453;28;823;-57
2022/04/08 02:33:43;;;;;;;;;;;;;;;8.21;88.26;98242.66;5053421;28;874;-57
2022/04/08 02:36:09;;;;;;;;;;;;;;;8.14;88.37;98246.34;5053166;28;902;-57
2022/04/08 02:38:36;;;;;;;;;;;;;;;8.05;88.47;98243.38;5053041;28;1910;-57
2022/04/08 02:41:02;;;;;;;;;;;;;;;7.94;88.52;98251.09;5053201;28;838;-57
2022/04/08 02:43:29;;;;;;;;;;;;;;;7.84;89.53;98250.06;5052806;28;781;-57
2022/04/08 02:45:56;;;;;;;;;;;;;;;7.77;89.66;98251.00;5052929;28;861;-57
2022/04/08 02:48:23;;;;;;;;;;;;;;;7.74;90.03;98242.78;5052969;28;877;-57
2022/04/08 02:50:49;;;;;;;;;;;;;;;7.71;90.04;98249.16;5053227;28;870;-57
2022/04/08 02:53:16;;;;;;;;;;;;;;;7.71;89.87;98243.66;5053230;28;862;-57
2022/04/08 02:55:42;;;;;;;;;;;;;;;7.77;90.33;98250.22;5052825;28;838;-57
2022/04/08 02:58:09;;;;;;;;;;;;;;;7.85;90.38;98254.41;5051590;28;1947;-57
2022/04/08 03:00:36;;;;;;;;;;;;;;;7.85;89.62;98265.41;5051551;28;1180;-57
2022/04/08 03:03:02;;;;;;;;;;;;;;;7.82;89.80;98263.47;5052979;28;854;-57
2022/04/08 03:05:29;;;;;;;;;;;;;;;7.77;89.53;98264.75;5052617;28;794;-57
2022/04/08 03:07:56;;;;;;;;;;;;;;;7.82;89.19;98266.22;5052594;28;854;-57
2022/04/08 03:10:22;;;;;;;;;;;;;;;7.91;89.54;98266.44;5052578;28;798;-57
2022/04/08 03:12:49;;;;;;;;;;;;;;;7.97;89.03;98261.22;5052589;28;841;-57
2022/04/08 03:15:16;;;;;;;;;;;;;;;7.97;89.30;98261.22;5052452;28;893;-57
2022/04/08 03:17:43;;;;;;;;;;;;;;;7.94;89.39;98265.59;5052388;28;1975;-57
2022/04/08 03:20:10;;;;;;;;;;;;;;;7.94;89.47;98278.59;5052394;28;837;-57
2022/04/08 03:22:36;;;;;;;;;;;;;;;8.00;89.37;98282.41;5052188;28;878;-57
2022/04/08 03:25:03;;;;;;;;;;;;;;;8.05;89.28;98290.16;5052439;28;1228;-57
2022/04/08 03:27:31;;;;;;;;;;;;;;;8.12;89.13;98292.78;5052308;28;806;-57
2022/04/08 03:29:57;;;;;;;;;;;;;;;8.22;88.65;98299.28;5052204;28;878;-57
2022/04/08 03:32:24;;;;;;;;;;;;;;;8.36;88.36;98303.72;5052090;28;878;-57
2022/04/08 03:34:57;;;;;;;;;;;;;;;8.47;87.76;98298.03;5050809;28;1484;-57
2022/04/08 03:37:27;;;;;;;;;;;;;;;8.61;87.25;98314.25;5051827;28;1910;-57
2022/04/08 03:39:53;;;;;;;;;;;;;;;8.70;87.37;98308.94;5052044;28;841;-57
2022/04/08 03:42:20;;;;;;;;;;;;;;;8.78;86.80;98329.63;5052300;28;810;-57
2022/04/08 03:44:47;;;;;;;;;;;;;;;8.86;86.08;98324.00;5052136;28;890;-57
2022/04/08 03:47:13;;;;;;;;;;;;;;;8.90;86.67;98327.44;5051965;28;854;-57
2022/04/08 03:49:40;;;;;;;;;;;;;;;8.88;86.82;98332.59;5051877;28;810;-57
2022/04/08 03:52:10;;;;;;;;;;;;;;;8.89;86.55;98328.63;5051844;28;872;-57
2022/04/08 03:54:37;;;;;;;;;;;;;;;8.89;86.11;98328.63;5051767;28;814;-57
2022/04/08 03:57:04;;;;;;;;;;;;;;;8.81;86.73;98338.25;5051292;28;858;-57
2022/04/08 03:59:31;;;;;;;;;;;;;;;8.72;87.21;98339.59;5051627;28;1953;-57
2022/04/08 04:01:58;;;;;;;;;;;;;;;8.69;87.64;98345.19;5051635;28;914;-57
2022/04/08 04:04:26;;;;;;;;;;;;;;;8.67;87.16;98340.09;5051671;28;794;-57
2022/04/08 04:06:52;;;;;;;;;;;;;;;8.66;87.15;98351.53;5051453;28;884;-57
2022/04/08 04:09:19;;;;;;;;;;;;;;;8.67;87.49;98347.59;5051660;28;806;-57
2022/04/08 04:11:46;;;;;;;;;;;;;;;8.64;87.08;98346.47;5050225;28;1496;-57
2022/04/08 04:14:12;;;;;;;;;;;;;;;8.59;87.76;98352.47;5051606;28;822;-57
2022/04/08 04:16:40;;;;;;;;;;;;;;;8.56;86.87;98356.06;5051627;28;806;-57
2022/04/08 04:19:07;;;;;;;;;;;;;;;8.54;87.03;98353.75;5051437;28;1953;-57
2022/04/08 04:21:34;;;;;;;;;;;;;;;8.51;87.51;98360.09;5051654;28;865;-57
2022/04/08 04:24:00;;;;;;;;;;;;;;;8.52;87.19;98355.38;5051394;28;1097;-57
2022/04/08 04:26:27;;;;;;;;;;;;;;;8.46;87.52;98360.59;5051251;28;1226;-57
2022/04/08 04:28:54;;;;;;;;;;;;;;;8.36;87.44;98364.28;5051414;28;1045;-57
2022/04/08 04:31:20;;;;;;;;;;;;;;;8.31;87.69;98373.03;5051412;28;815;-57
2022/04/08 04:33:46;;;;;;;;;;;;;;;8.27;88.68;98378.59;5051524;28;798;-57
2022/04/08 04:36:13;;;;;;;;;;;;;;;8.23;88.46;98377.13;5049876;28;1291;-56
2022/04/08 04:38:39;;;;;;;;;;;;;;;8.25;88.97;98377.47;5051618;28;1984;-57
2022/04/08 04:41:06;;;;;;;;;;;;;;;8.26;88.54;98379.03;5051241;28;814;-57
2022/04/08 04:43:32;;;;;;;;;;;;;;;8.22;88.83;98381.84;5051234;28;837;-57
2022/04/08 04:45:58;;;;;;;;;;;;;;;8.20;88.55;98381.50;5051274;28;889;-57
2022/04/08 04:48:25;;;;;;;;;;;;;;;8.13;88.28;98389.91;5051245;28;846;-56
2022/04/08 04:50:51;;;;;;;;;;;;;;;8.12;89.31;98380.84;5051132;28;983;-57
2022/04/08 04:53:18;;;;;;;;;;;;;;;8.12;89.15;98394.59;5051091;28;917;-57
2022/04/08 04:55:44;;;;;;;;;;;;;;;8.21;88.54;98390.53;5051157;28;814;-56
2022/04/08 04:58:11;;;;;;;;;;;;;;;8.35;88.15;98402.06;5051000;28;1897;-57
2022/04/08 05:00:38;;;;;;;;;;;;;;;8.62;87.21;98408.66;5051114;28;838;-57
2022/04/08 05:03:06;;;;;;;;;;;;;;;9.06;85.51;98407.38;5051437;28;882;-57
2022/04/08 05:05:32;;;;;;;;;;;;;;;9.64;83.84;98417.91;5050901;28;953;-57
2022/04/08 05:08:04;;;;;;;;;;;;;;;10.44;82.57;98414.03;5053227;28;869;-57
2022/04/08 05:10:34;;;;;;;;;;;;;;;11.22;78.86;98417.34;5054883;28;873;-57
2022/04/08 05:13:01;;;;;;;;;;;;;;;11.99;77.33;98425.69;5054765;28;829;-57
2022/04/08 05:15:28;;;;;;;;;;;;;;;12.86;75.34;98424.25;5055067;28;888;-57
2022/04/08 05:17:55;;;;;;;;;;;;;;;13.62;72.93;98425.03;5054640;28;1953;-57
2022/04/08 05:20:22;;;;;;;;;;;;;;;14.34;69.36;98433.25;5054701;28;790;-57
2022/04/08 05:22:48;;;;;;;;;;;;;;;15.16;66.24;98440.03;5054636;28;869;-57
2022/04/08 05:25:15;;;;;;;;;;;;;;;15.63;63.89;98441.44;5054296;28;1232;-57
2022/04/08 05:27:42;;;;;;;;;;;;;;;16.08;62.20;98439.72;5054510;28;909;-57
2022/04/08 05:30:10;;;;;;;;;;;;;;;16.61;60.63;98440.31;5054518;28;814;-57
2022/04/08 05:32:36;;;;;;;;;;;;;;;16.51;58.58;98442.38;5054375;28;1138;-57
2022/04/08 05:35:01;;;;;;;;;;;;;;;16.50;58.62;98438.84;5054261;28;1121;-57
2022/04/08 05:37:30;;;;;;;;;;;;;;;16.51;57.64;98448.75;5054324;28;1917;-57
2022/04/08 05:39:57;;;;;;;;;;;;;;;16.87;56.62;98444.13;5054153;28;902;-57
2022/04/08 05:42:24;;;;;;;;;;;;;;;17.67;55.23;98437.91;5054555;28;897;-57
2022/04/08 05:44:51;;;;;;;;;;;;;;;18.23;53.20;98447.13;5054168;28;850;-57
2022/04/08 05:47:17;;;;;;;;;;;;;;;18.57;51.87;98459.50;5054265;28;858;-57
2022/04/08 05:49:44;;;;;;;;;;;;;;;18.36;49.75;98458.72;5054121;28;869;-57
2022/04/08 05:52:12;;;;;;;;;;;;;;;18.40;50.80;98455.75;5054060;28;795;-57
2022/04/08 05:54:39;;;;;;;;;;;;;;;18.79;49.69;98460.31;5053949;28;867;-57
2022/04/08 05:57:06;;;;;;;;;;;;;;;18.83;47.92;98456.03;5054268;28;819;-57
2022/04/08 05:59:36;;;;;;;;;;;;;;;19.13;47.47;98461.44;5053918;28;1967;-57
2022/04/08 06:02:04;;;;;;;;;;;;;;;19.34;47.52;98454.50;5053781;28;929;-57
2022/04/08 06:04:31;;;;;;;;;;;;;;;19.86;46.67;98458.53;5053777;28;798;-56
2022/04/08 06:06:58;;;;;;;;;;;;;;;20.33;46.43;98461.88;5053678;28;939;-56
2022/04/08 06:09:24;;;;;;;;;;;;;;;20.52;45.60;98470.63;5053779;28;814;-56
2022/04/08 06:11:51;;;;;;;;;;;;;;;20.26;45.24;98470.75;5053805;28;994;-57
2022/04/08 06:14:17;;;;;;;;;;;;;;;19.72;45.69;98472.19;5053725;28;866;-56
2022/04/08 06:16:44;;;;;;;;;;;;;;;20.02;45.48;98468.31;5053466;28;960;-56
2022/04/08 06:19:10;;;;;;;;;;;;;;;20.18;44.48;98465.63;5052738;28;1886;-56
2022/04/08 06:21:37;;;;;;;;;;;;;;;20.50;44.04;98465.50;5053518;28;907;-56
2022/04/08 06:24:04;;;;;;;;;;;;;;;20.60;42.56;98463.31;5053503;28;889;-56
2022/04/08 06:26:34;;;;;;;;;;;;;;;20.72;42.00;98464.13;5053312;28;1253;-57
2022/04/08 06:29:02;;;;;;;;;;;;;;;20.15;43.56;98463.81;5053608;28;913;-56
2022/04/08 06:31:30;;;;;;;;;;;;;;;19.73;44.85;98470.91;5053304;28;893;-57
2022/04/08 06:33:59;;;;;;;;;;;;;;;19.46;46.07;98463.00;5051836;28;909;-57
2022/04/08 06:36:26;;;;;;;;;;;;;;;18.95;47.45;98471.69;5053580;28;807;-57
2022/04/08 06:38:53;;;;;;;;;;;;;;;18.87;47.73;98481.00;5053239;28;1910;-57
2022/04/08 06:41:20;;;;;;;;;;;;;;;19.24;46.25;98483.94;5053396;28;973;-56
2022/04/08 06:43:46;;;;;;;;;;;;;;;19.27;45.14;98488.56;5053365;28;835;-56
2022/04/08 06:46:13;;;;;;;;;;;;;;;19.16;46.75;98482.84;5053588;28;838;-56
2022/04/08 06:48:40;;;;;;;;;;;;;;;19.26;45.42;98483.47;5052111;28;830;-57
2022/04/08 06:51:07;;;;;;;;;;;;;;;19.47;45.39;98482.13;5053102;28;886;-57
2022/04/08 06:53:34;;;;;;;;;;;;;;;19.25;44.15;98487.53;5053257;28;834;-57
2022/04/08 06:56:01;;;;;;;;;;;;;;;19.31;45.83;98497.53;5053224;28;807;-56
2022/04/08 06:58:30;;;;;;;;;;;;;;;19.91;43.24;98491.44;5052954;28;1925;-57
2022/04/08 07:00:57;;;;;;;;;;;;;;;20.69;44.23;98496.00;5052873;28;873;-57
2022/04/08 07:03:24;;;;;;;;;;;;;;;20.69;42.29;98504.44;5052668;28;794;-57
2022/04/08 07:05:50;;;;;;;;;;;;;;;20.28;42.57;98515.91;5052889;28;878;-57
2022/04/08 07:08:17;;;;;;;;;;;;;;;19.49;44.11;98523.66;5052831;28;838;-57
2022/04/08 07:10:44;;;;;;;;;;;;;;;19.96;43.58;98525.13;5052751;28;866;-57
2022/04/08 07:13:10;;;;;;;;;;;;;;;20.23;42.48;98522.25;5053094;28;893;-57
2022/04/08 07:15:37;;;;;;;;;;;;;;;19.25;43.77;98530.31;5053003;28;815;-57
2022/04/08 07:18:05;;;;;;;;;;;;;;;18.20;45.48;98532.00;5052670;28;1943;-57
2022/04/08 07:20:31;;;;;;;;;;;;;;;17.90;47.77;98546.03;5052533;28;949;-57
2022/04/08 07:23:02;;;;;;;;;;;;;;;18.96;46.31;98534.03;5052666;28;835;-57
2022/04/08 07:25:29;;;;;;;;;;;;;;;19.85;44.67;98541.09;5052303;28;1337;-57
2022/04/08 07:27:58;;;;;;;;;;;;;;;19.97;42.02;98534.28;5052196;28;901;-57
2022/04/08 07:30:25;;;;;;;;;;;;;;;20.05;42.42;98521.38;5052181;28;855;-57
2022/04/08 07:32:54;;;;;;;;;;;;;;;19.91;42.76;98539.13;5052062;28;1156;-58
2022/04/08 07:35:25;;;;;;;;;;;;;;;20.23;42.21;98553.09;5052090;28;870;-57
2022/04/08 07:37:53;;;;;;;;;;;;;;;20.02;43.19;98550.41;5051930;28;1913;-57
2022/04/08 07:40:20;;;;;;;;;;;;;;;20.76;41.91;98560.09;5051970;28;878;-57
2022/04/08 07:42:47;;;;;;;;;;;;;;;21.05;40.10;98544.91;5051930;28;924;-57
2022/04/08 07:45:13;;;;;;;;;;;;;;;21.23;41.63;98563.38;5052297;28;815;-57
2022/04/08 07:47:41;;;;;;;;;;;;;;;21.75;39.90;98568.63;5051996;28;1025;-57
2022/04/08 07:50:09;;;;;;;;;;;;;;;21.45;39.56;98567.53;5051906;28;810;-56
2022/04/08 07:52:37;;;;;;;;;;;;;;;21.57;38.16;98555.03;5051786;28;859;-57
2022/04/08 07:55:04;;;;;;;;;;;;;;;21.45;39.82;98568.31;5051716;28;937;-57
2022/04/08 07:57:31;;;;;;;;;;;;;;;21.37;40.31;98576.41;5051795;28;1957;-57
2022/04/08 07:59:59;;;;;;;;;;;;;;;21.64;39.62;98568.59;5051562;28;1060;-57
2022/04/08 08:02:29;;;;;;;;;;;;;;;21.51;37.48;98557.84;5051643;28;878;-57
2022/04/08 08:05:07;;;;;;;;;;;;;;;20.67;37.13;98563.09;5051577;28;949;-57
2022/04/08 08:07:54;;;;;;;;;;;;;;;20.49;39.24;98597.94;5051511;28;938;-57
2022/04/08 08:10:21;;;;;;;;;;;;;;;19.84;39.93;98595.63;5051570;28;1310;-57
2022/04/08 08:12:49;;;;;;;;;;;;;;;20.30;38.92;98592.69;5051518;28;902;-57
2022/04/08 08:15:18;;;;;;;;;;;;;;;20.67;37.90;98585.56;5051664;28;865;-57
2022/04/08 08:17:46;;;;;;;;;;;;;;;20.83;39.26;98582.09;5051387;28;1913;-57
2022/04/08 08:20:13;;;;;;;;;;;;;;;21.01;38.53;98576.03;5050240;28;1704;-57
2022/04/08 08:22:41;;;;;;;;;;;;;;;20.91;37.50;98582.38;5051397;28;941;-57
2022/04/08 08:25:09;;;;;;;;;;;;;;;21.05;38.81;98587.03;5051321;28;1186;-57
2022/04/08 08:27:36;;;;;;;;;;;;;;;21.61;37.33;98592.09;5051368;28;1078;-55
2022/04/08 08:30:03;;;;;;;;;;;;;;;21.08;37.68;98579.63;5051405;28;904;-57
2022/04/08 08:32:29;;;;;;;;;;;;;;;21.08;38.37;98588.06;5051346;28;857;-57
2022/04/08 08:34:56;;;;;;;;;;;;;;;20.96;35.70;98588.03;5051315;28;988;-57
2022/04/08 08:37:23;;;;;;;;;;;;;;;20.56;37.04;98594.66;5051409;28;916;-57
2022/04/08 08:39:49;;;;;;;;;;;;;;;20.28;37.85;98574.84;5051517;28;1902;-57
2022/04/08 08:42:17;;;;;;;;;;;;;;;20.30;39.32;98581.47;5052427;28;913;-57
2022/04/08 08:44:44;;;;;;;;;;;;;;;20.39;38.84;98581.28;5055410;28;799;-57
2022/04/08 08:47:12;;;;;;;;;;;;;;;20.60;36.84;98595.22;5055349;28;885;-57
2022/04/08 08:49:41;;;;;;;;;;;;;;;20.43;38.23;98586.66;5055236;28;960;-57
2022/04/08 08:52:09;;;;;;;;;;;;;;;20.68;37.63;98603.97;5054319;28;810;-57
2022/04/08 09:06:48;;;;;;;;;;;;;;;20.37;35.25;98639.94;5055282;28;593;-57
2022/04/08 09:12:28;;;;;;;;;;;;;;;20.13;35.52;98643.06;5054884;28;733;-58
2022/04/08 09:14:57;;;;;;;;;;;;;;;20.49;34.45;98656.88;5054773;28;909;-57
2022/04/08 09:17:24;;;;;;;;;;;;;;;20.33;35.35;98661.06;5055035;28;850;-58
2022/04/08 09:19:52;;;;;;;;;;;;;;;20.35;35.62;98636.84;5054729;28;1890;-57
2022/04/08 09:22:18;;;;;;;;;;;;;;;20.33;35.27;98638.63;5055026;28;854;-57
2022/04/08 09:24:45;;;;;;;;;;;;;;;20.39;34.90;98639.44;5055047;28;943;-57
2022/04/08 09:27:11;;;;;;;;;;;;;;;20.70;36.26;98633.06;5054453;28;1421;-57
2022/04/08 09:29:41;;;;;;;;;;;;;;;20.77;34.53;98632.59;5054575;28;814;-57
2022/04/08 09:35:15;;;;;;;;;;;;;;;21.33;34.05;98645.38;5054475;28;609;-57
2022/04/08 09:37:43;;;;;;;;;;;;;;;21.40;38.05;98656.94;5054780;28;1981;-58
2022/04/08 09:40:10;;;;;;;;;;;;;;;21.19;35.01;98638.69;5054583;28;857;-58
2022/04/08 09:42:47;;;;;;;;;;;;;;;21.17;36.44;98642.00;5053214;28;1337;-57
2022/04/08 09:45:14;;;;;;;;;;;;;;;21.33;33.84;98648.97;5054298;28;807;-57
2022/04/08 09:47:41;;;;;;;;;;;;;;;21.08;34.71;98636.59;5054338;28;878;-57
2022/04/08 09:50:10;;;;;;;;;;;;;;;21.28;37.45;98637.72;5054246;28;811;-57
2022/04/08 09:52:40;;;;;;;;;;;;;;;21.21;35.75;98630.53;5054078;28;802;-58
2022/04/08 09:55:07;;;;;;;;;;;;;;;21.33;35.73;98634.91;5052761;28;878;-57
2022/04/08 10:26:02;;;;;;;;;;;;;;;22.03;30.96;98646.63;5326770;22;1682;-55
2022/04/08 10:28:36;;;;;;;;;;;;;;;22.06;31.76;98651.22;5053437;28;870;-56
2022/04/08 10:31:13;;;;;;;;;;;;;;;22.18;32.18;98649.97;5053390;28;854;-56
2022/04/08 10:33:45;;;;;;;;;;;;;;;22.16;30.65;98648.94;5053425;28;833;-56
2022/04/08 10:36:12;;;;;;;;;;;;;;;21.92;29.86;98641.00;5053357;28;814;-56
2022/04/08 10:38:39;;;;;;;;;;;;;;;21.86;30.43;98651.47;5053302;28;1910;-56
2022/04/08 10:41:12;;;;;;;;;;;;;;;21.98;29.53;98648.16;5053119;28;948;-56
2022/04/08 10:43:45;;;;;;;;;;;;;;;21.99;29.92;98648.94;5053190;28;811;-56
2022/04/08 10:46:32;;;;;;;;;;;;;;;22.29;30.57;98654.09;5051890;28;1271;-56
2022/04/08 10:48:59;;;;;;;;;;;;;;;22.65;30.37;98646.66;5052952;28;862;-56
2022/04/08 10:51:30;;;;;;;;;;;;;;;22.81;29.61;98642.31;5053090;28;805;-56
2022/04/08 10:54:24;;;;;;;;;;;;;;;22.55;28.51;98640.53;5052821;28;928;-56
2022/04/08 10:57:01;;;;;;;;;;;;;;;22.30;32.34;98652.84;5053192;28;866;-56
2022/04/08 10:59:28;;;;;;;;;;;;;;;22.50;30.15;98646.16;5052892;28;1930;-56
2022/04/08 11:02:05;;;;;;;;;;;;;;;22.80;29.74;98652.78;5052924;28;838;-56
2022/04/08 11:04:32;;;;;;;;;;;;;;;22.63;29.03;98647.16;5052493;28;866;-56
2022/04/08 11:07:05;;;;;;;;;;;;;;;22.83;29.22;98648.19;5052683;28;885;-56
2022/04/08 11:09:32;;;;;;;;;;;;;;;23.00;29.96;98650.94;5052606;28;858;-56
2022/04/08 11:11:58;;;;;;;;;;;;;;;22.84;28.04;98658.91;5052808;28;881;-57
2022/04/08 11:14:29;;;;;;;;;;;;;;;22.86;27.23;98669.69;5051474;28;802;-56
2022/04/08 11:16:56;;;;;;;;;;;;;;;22.66;28.63;98670.75;5052829;28;877;-56
2022/04/08 11:19:23;;;;;;;;;;;;;;;22.56;27.44;98672.28;5052655;28;1882;-56
2022/04/08 11:21:51;;;;;;;;;;;;;;;22.79;26.88;98667.41;5052915;28;869;-56
2022/04/08 11:24:18;;;;;;;;;;;;;;;22.73;26.78;98675.84;5052718;28;987;-57
2022/04/08 11:26:44;;;;;;;;;;;;;;;22.82;27.67;98675.56;5051099;28;1452;-57
2022/04/08 11:29:15;;;;;;;;;;;;;;;22.95;28.43;98685.53;5052634;28;857;-57
2022/04/08 11:31:43;;;;;;;;;;;;;;;22.86;28.48;98675.31;5052313;28;873;-56
2022/04/08 11:34:10;;;;;;;;;;;;;;;23.22;28.69;98672.69;5052127;28;889;-57
2022/04/08 11:36:37;;;;;;;;;;;;;;;23.49;28.77;98671.03;5052132;28;930;-57
2022/04/08 11:39:05;;;;;;;;;;;;;;;23.71;29.88;98678.66;5051958;28;1914;-57
2022/04/08 11:41:32;;;;;;;;;;;;;;;23.90;30.30;98680.88;5052095;28;827;-57
2022/04/08 11:43:59;;;;;;;;;;;;;;;23.94;26.95;98678.53;5050761;28;930;-56
2022/04/08 11:46:26;;;;;;;;;;;;;;;23.72;27.02;98674.53;5052010;28;837;-57
2022/04/08 11:48:53;;;;;;;;;;;;;;;23.03;27.44;98680.94;5051898;28;826;-57
2022/04/08 11:51:21;;;;;;;;;;;;;;;22.64;27.58;98670.50;5052283;28;830;-57
2022/04/08 11:53:48;;;;;;;;;;;;;;;22.67;30.44;98672.25;5051726;28;968;-57
2022/04/08 11:56:22;;;;;;;;;;;;;;;23.49;30.24;98667.47;5051836;28;798;-57
2022/04/08 11:59:03;;;;;;;;;;;;;;;23.84;28.09;98659.09;5051907;28;1889;-57
2022/04/08 12:01:30;;;;;;;;;;;;;;;23.86;27.45;98669.13;5051672;28;882;-57
2022/04/08 12:03:58;;;;;;;;;;;;;;;23.81;28.57;98673.47;5051606;28;913;-57
2022/04/08 12:06:46;;;;;;;;;;;;;;;23.81;28.89;98668.63;5051685;28;846;-57
2022/04/08 12:12:21;;;;;;;;;;;;;;;24.06;28.16;98668.72;5051742;28;671;-57
2022/04/08 12:14:48;;;;;;;;;;;;;;;24.05;29.10;98682.06;5051567;28;810;-57
2022/04/08 12:17:15;;;;;;;;;;;;;;;24.09;28.85;98670.50;5049615;28;822;-57
2022/04/08 12:19:42;;;;;;;;;;;;;;;24.08;27.67;98679.50;5050170;28;1959;-57
2022/04/08 12:22:16;;;;;;;;;;;;;;;24.12;27.30;98680.75;5051440;28;891;-56
2022/04/08 12:24:43;;;;;;;;;;;;;;;24.02;26.24;98673.88;5051491;28;946;-57
2022/04/08 12:27:19;;;;;;;;;;;;;;;23.54;27.45;98672.31;5050179;28;1109;-57
2022/04/08 12:29:57;;;;;;;;;;;;;;;23.32;28.21;98679.59;5051279;28;1909;-56
2022/04/08 12:32:24;;;;;;;;;;;;;;;24.07;28.08;98669.47;5050245;28;779;-57
2022/04/08 12:34:50;;;;;;;;;;;;;;;23.86;26.31;98671.94;5051814;28;866;-57
2022/04/08 12:37:17;;;;;;;;;;;;;;;23.90;27.69;98676.00;5051236;28;831;-57
2022/04/08 12:39:43;;;;;;;;;;;;;;;24.14;26.77;98666.13;5051672;28;810;-57
2022/04/08 12:42:09;;;;;;;;;;;;;;;24.38;26.62;98668.25;5051550;28;834;-57
2022/04/08 12:44:37;;;;;;;;;;;;;;;24.68;26.37;98667.50;5051243;28;925;-57
2022/04/08 12:47:03;;;;;;;;;;;;;;;24.89;26.48;98662.94;5051271;28;790;-57
2022/04/08 12:49:32;;;;;;;;;;;;;;;24.89;25.58;98659.34;5051230;28;1957;-57
2022/04/08 12:51:59;;;;;;;;;;;;;;;24.72;26.65;98671.56;5051165;28;904;-57
2022/04/08 12:54:26;;;;;;;;;;;;;;;24.58;27.07;98667.06;5051202;28;832;-56
2022/04/08 12:56:53;;;;;;;;;;;;;;;24.52;28.09;98663.53;5051232;28;815;-56
2022/04/08 12:59:21;;;;;;;;;;;;;;;24.87;27.58;98648.56;5051111;28;885;-57
2022/04/08 13:01:48;;;;;;;;;;;;;;;24.91;27.21;98649.03;5051187;28;841;-57
2022/04/08 13:04:14;;;;;;;;;;;;;;;24.67;26.28;98668.81;5051121;28;842;-57
2022/04/08 13:06:41;;;;;;;;;;;;;;;24.65;24.31;98678.56;5051379;28;929;-57
2022/04/08 13:09:08;;;;;;;;;;;;;;;24.48;24.69;98677.16;5050862;28;1890;-57
2022/04/08 13:11:34;;;;;;;;;;;;;;;24.40;24.28;98688.25;5051060;28;806;-57
2022/04/08 13:14:01;;;;;;;;;;;;;;;24.53;26.35;98685.59;5050960;28;1047;-57
2022/04/08 13:16:27;;;;;;;;;;;;;;;24.58;24.15;98693.28;5051000;28;901;-56
2022/04/08 13:18:53;;;;;;;;;;;;;;;24.57;26.74;98697.38;5051281;28;853;-57
2022/04/08 13:21:20;;;;;;;;;;;;;;;24.74;25.50;98691.59;5050932;28;862;-57
2022/04/08 13:23:47;;;;;;;;;;;;;;;24.89;26.13;98696.06;5050903;28;898;-57
2022/04/08 13:26:14;;;;;;;;;;;;;;;25.04;24.54;98697.19;5050784;28;1376;-57
2022/04/08 13:28:40;;;;;;;;;;;;;;;24.85;25.49;98673.75;5052310;28;1977;-57
2022/04/08 13:31:07;;;;;;;;;;;;;;;24.63;25.04;98686.03;5053278;28;1294;-57
2022/04/08 13:33:33;;;;;;;;;;;;;;;24.53;25.40;98696.13;5054506;28;866;-56
2022/04/08 13:36:00;;;;;;;;;;;;;;;24.27;25.87;98697.31;5054462;28;863;-56
2022/04/08 13:38:27;;;;;;;;;;;;;;;24.11;26.09;98701.81;5053226;28;1629;-56
2022/04/08 13:40:55;;;;;;;;;;;;;;;23.73;25.37;98707.09;5054325;28;886;-56
2022/04/08 13:43:21;;;;;;;;;;;;;;;23.42;26.71;98700.56;5053038;28;933;-56
2022/04/08 13:45:49;;;;;;;;;;;;;;;23.36;27.88;98704.69;5054313;28;905;-56
2022/04/08 13:48:16;;;;;;;;;;;;;;;23.62;26.40;98698.69;5054250;28;1955;-57
2022/04/08 13:50:43;;;;;;;;;;;;;;;23.90;26.91;98697.81;5054107;28;1173;-57
2022/04/08 13:53:09;;;;;;;;;;;;;;;24.27;27.53;98705.78;5054054;28;799;-56
2022/04/08 13:55:36;;;;;;;;;;;;;;;24.51;26.79;98695.88;5054275;28;810;-57
2022/04/08 13:58:02;;;;;;;;;;;;;;;24.43;26.33;98693.63;5054334;28;819;-56
2022/04/08 14:00:29;;;;;;;;;;;;;;;24.23;25.53;98700.41;5054063;28;787;-57
2022/04/08 14:02:55;;;;;;;;;;;;;;;24.16;26.90;98695.34;5052736;28;892;-56